Etusivu
METAR-TAF:

METAR-TAF

Lentoasemat :

Taškent, Uzbekistan

Leveyspiiri: 41-16N, Pituuspiiri: 069-16E, korkeus merenpinnasta: 489 m

Tämänhetkinen sää

Tämä raportti tehtiin 41 minuuttia sitten, kello 14.00 UTC
Tuuli 2 kn lounaasta
Lämpötila 8°C
Kosteus 49%
Ilmanpaine 1024 hPa
Näkyvyys: 3000 m
savua

METAR: UTTT 131400Z 23002KT 3000 FU NSC 08/M02 Q1024 R26R/CLRD70 NOSIG

Aika: 19:41 (14:41 UTC)

Sääennuste

Tämä raportti tehtiin 3 tuntia ja 41 minuuttia sitten, kello 11.00 UTC
Ennuste voimassa 13. päivästä klo 12 UTC - 14. päivään klo 12 UTC
Tuuli 12 kn idästä
Näkyvyys: 5000 m
savua
Ajoittain
13. päivästä klo 13 UTC - 13. päivään klo 24 UTC
Tuuli 2 kn eri suunnista
Näkyvyys: 2000 m
utua

TAF: UTTT 131100Z 1312/1412 08012KT 5000 FU NSC TEMPO 1313/1324 VRB02KT 2000 BR

Säähavainnot ja -ennusteet yli 4000 lentoasemalta (METAR- ja TAF-raportit).

Käytössä olevat sääasemat on merkitty karttaan keltaisilla ja punaisilla pisteillä.

Aseta hiiri pisteen päälle nähdäksesi sääaseman nimen.

Klikkaa sitten nähdäksesi säähavainnot ja -ennusteet.

Kartan vaihtaminen: klikkaa mustalla rastilla varustettuja vihreitä pisteitä, niin voit zoomata sisään; viivalla varustettua vihreää pistettä, niin voit zoomata ulos tai vihreitä nuolia, niin pääset viereisille kartoille.


METAR-TAF: